createdAt,value
2022-11-20T00:03:57.303Z,101033.75
2022-11-20T00:08:08.776Z,101031.38
2022-11-20T00:12:20.222Z,101012.50
2022-11-20T00:16:33.850Z,101011.16
2022-11-20T00:20:45.293Z,101008.66
2022-11-20T00:24:58.303Z,100993.41
2022-11-20T00:29:11.323Z,100991.03
2022-11-20T00:33:22.813Z,100995.59
2022-11-20T00:37:34.287Z,101002.66
2022-11-20T00:41:45.750Z,101000.47
2022-11-20T00:46:02.252Z,101003.09
2022-11-20T00:50:13.725Z,101003.38
2022-11-20T00:54:25.274Z,100988.94
2022-11-20T00:58:39.345Z,100996.00
2022-11-20T01:02:50.760Z,101000.31
2022-11-20T01:07:02.264Z,101001.72
2022-11-20T01:11:22.751Z,100994.63
2022-11-20T01:15:34.948Z,100997.53
2022-11-20T01:19:51.653Z,100986.31
2022-11-20T01:24:04.728Z,100974.38
2022-11-20T01:28:16.187Z,100986.72
2022-11-20T01:32:27.697Z,100958.28
2022-11-20T01:36:40.346Z,100965.78
2022-11-20T01:40:56.244Z,100966.06
2022-11-20T01:45:45.807Z,100965.78
2022-11-20T01:50:03.821Z,100956.78
2022-11-20T01:54:24.132Z,100955.13
2022-11-20T01:58:39.980Z,100946.94
2022-11-20T02:02:58.550Z,100972.03
2022-11-20T02:07:10.285Z,100960.22
2022-11-20T02:11:22.700Z,100963.56
2022-11-20T02:15:34.740Z,100964.66
2022-11-20T02:19:46.258Z,100964.78
2022-11-20T02:24:08.547Z,100966.59
2022-11-20T02:28:20.387Z,100950.78
2022-11-20T02:32:33.715Z,100950.53
2022-11-20T02:36:47.613Z,100949.84
2022-11-20T02:40:59.082Z,100953.56
2022-11-20T02:45:11.180Z,100946.91
2022-11-20T02:49:22.716Z,100953.25
2022-11-20T02:53:34.345Z,100948.56
2022-11-20T02:57:45.830Z,100938.03
2022-11-20T03:01:57.378Z,100934.84
2022-11-20T03:06:09.147Z,100934.97
2022-11-20T03:10:20.593Z,100926.50
2022-11-20T03:14:32.516Z,100937.72
2022-11-20T03:18:44.706Z,100902.66
2022-11-20T03:22:56.268Z,100926.63
2022-11-20T03:27:07.995Z,100892.66
2022-11-20T03:31:22.653Z,100886.59
2022-11-20T03:35:34.327Z,100900.72
2022-11-20T03:39:45.895Z,100904.31
2022-11-20T03:44:00.254Z,100894.31
2022-11-20T03:48:11.834Z,100895.72
2022-11-20T03:52:23.448Z,100898.09
2022-11-20T03:56:37.313Z,100901.81
2022-11-20T04:00:48.941Z,100859.38
2022-11-20T04:05:00.549Z,100900.25
2022-11-20T04:09:12.264Z,100895.41
2022-11-20T04:13:23.879Z,100885.16
2022-11-20T04:17:35.604Z,100886.13
2022-11-20T04:21:47.296Z,100888.47
2022-11-20T04:26:06.906Z,100891.09
2022-11-20T04:30:18.595Z,100880.13
2022-11-20T04:34:30.189Z,100876.78
2022-11-20T04:38:41.927Z,100879.44
2022-11-20T04:42:53.518Z,100883.00
2022-11-20T04:47:05.315Z,100893.84
2022-11-20T04:51:16.939Z,100875.81
2022-11-20T04:55:28.534Z,100881.78
2022-11-20T04:59:40.112Z,100869.03
2022-11-20T05:03:52.588Z,100869.59
2022-11-20T05:08:04.549Z,100870.28
2022-11-20T05:12:16.184Z,100855.19
2022-11-20T05:16:27.777Z,100839.53
2022-11-20T05:20:39.463Z,100840.91
2022-11-20T05:24:51.091Z,100842.81
2022-11-20T05:29:02.843Z,100841.19
2022-11-20T05:33:14.752Z,100853.63
2022-11-20T05:37:26.466Z,100857.75
2022-11-20T05:41:38.058Z,100832.28
2022-11-20T05:45:55.866Z,100835.75
2022-11-20T05:50:07.732Z,100832.41
2022-11-20T05:54:19.317Z,100837.16
2022-11-20T05:58:32.768Z,100842.28
2022-11-20T06:02:44.437Z,100836.84
2022-11-20T06:06:56.018Z,100829.34
2022-11-20T06:11:13.491Z,100840.56
2022-11-20T06:15:25.413Z,100857.00
2022-11-20T06:19:37.033Z,100862.25
2022-11-20T06:23:49.757Z,100866.56
2022-11-20T06:28:01.352Z,100875.00
2022-11-20T06:32:12.967Z,100866.81
2022-11-20T06:36:24.516Z,100866.94
2022-11-20T06:40:36.054Z,100859.59
2022-11-20T06:44:47.688Z,100873.44
2022-11-20T06:48:59.389Z,100888.53
2022-11-20T06:53:10.953Z,100863.31
2022-11-20T06:57:22.584Z,100873.56
2022-11-20T07:01:34.387Z,100872.72
2022-11-20T07:05:46.929Z,100869.00
2022-11-20T07:09:58.578Z,100874.09
2022-11-20T07:14:10.150Z,100859.97
2022-11-20T07:18:21.986Z,100878.16
2022-11-20T07:22:33.541Z,100877.97
2022-11-20T07:26:48.102Z,100863.16
2022-11-20T07:31:00.027Z,100849.22
2022-11-20T07:35:11.684Z,100845.81
2022-11-20T07:39:23.590Z,100860.78
2022-11-20T07:43:39.896Z,100837.00
2022-11-20T07:47:53.068Z,100839.84
2022-11-20T07:52:05.460Z,100828.53
2022-11-20T07:56:17.176Z,100840.44
2022-11-20T08:00:28.925Z,100833.25
2022-11-20T08:04:40.589Z,100849.31
2022-11-20T08:08:52.419Z,100841.28
2022-11-20T08:13:22.835Z,100848.59
2022-11-20T08:17:34.561Z,100857.41
2022-11-20T08:21:46.697Z,100851.94
2022-11-20T08:25:58.478Z,100868.47
2022-11-20T08:30:10.827Z,100857.00
2022-11-20T08:34:22.426Z,100840.78
2022-11-20T08:38:34.000Z,100838.31
2022-11-20T08:42:50.491Z,100837.91
2022-11-20T08:47:02.161Z,100840.91
2022-11-20T08:51:13.859Z,100842.69
2022-11-20T08:55:25.476Z,100833.66
2022-11-20T09:00:04.396Z,100822.78
2022-11-20T09:04:08.726Z,100838.00
2022-11-20T09:08:20.324Z,100836.06
2022-11-20T09:12:31.855Z,100817.88
2022-11-20T09:16:43.429Z,100806.25
2022-11-20T09:21:02.582Z,100801.06
2022-11-20T09:25:14.229Z,100794.25
2022-11-20T09:29:25.886Z,100810.75
2022-11-20T09:33:37.622Z,100812.38
2022-11-20T09:37:49.330Z,100817.34
2022-11-20T09:42:05.419Z,100807.94
2022-11-20T09:46:30.896Z,100796.13
2022-11-20T09:51:10.463Z,100808.25
2022-11-20T09:55:22.656Z,100792.03
2022-11-20T09:59:47.027Z,100786.94
2022-11-20T10:04:14.804Z,100796.41
2022-11-20T10:08:32.894Z,100768.97
2022-11-20T10:13:11.945Z,100789.50
2022-11-20T10:17:46.178Z,100767.03
2022-11-20T10:22:10.024Z,100752.31
2022-11-20T10:26:53.016Z,100758.59
2022-11-20T10:31:11.729Z,100733.94
2022-11-20T10:35:29.656Z,100734.75
2022-11-20T10:40:22.735Z,100716.22
2022-11-20T10:44:56.696Z,100719.50
2022-11-20T10:49:26.779Z,100721.66
2022-11-20T10:53:54.936Z,100722.47
2022-11-20T10:58:18.077Z,100710.72
2022-11-20T11:02:35.975Z,100709.50
2022-11-20T11:06:49.654Z,100699.28
2022-11-20T11:11:10.362Z,100682.88
2022-11-20T11:15:31.513Z,100680.53
2022-11-20T11:19:43.148Z,100664.34
2022-11-20T11:24:26.847Z,100658.31
2022-11-20T11:28:35.418Z,100650.84
2022-11-20T11:32:47.433Z,100649.97
2022-11-20T11:37:00.377Z,100649.63
2022-11-20T11:41:22.038Z,100639.59
2022-11-20T11:45:33.679Z,100616.41
2022-11-20T11:49:45.402Z,100609.59
2022-11-20T11:54:00.179Z,100611.94
2022-11-20T11:58:42.875Z,100607.03
2022-11-20T12:02:58.540Z,100589.50
2022-11-20T12:07:47.633Z,100593.56
2022-11-20T12:12:11.525Z,100592.31
2022-11-20T12:16:23.912Z,100605.72
2022-11-20T12:20:44.899Z,100566.81
2022-11-20T12:25:04.511Z,100562.16
2022-11-20T12:29:27.598Z,100544.91
2022-11-20T12:34:10.153Z,100556.22
2022-11-20T12:38:33.869Z,100555.53
2022-11-20T12:43:30.031Z,100540.78
2022-11-20T12:47:56.970Z,100543.38
2022-11-20T12:52:31.188Z,100523.81
2022-11-20T12:57:12.769Z,100522.44
2022-11-20T13:01:53.777Z,100532.53
2022-11-20T13:06:18.781Z,100525.41
2022-11-20T13:10:44.473Z,100514.38
2022-11-20T13:15:04.514Z,100498.06
2022-11-20T13:19:18.248Z,100470.78
2022-11-20T13:23:29.974Z,100466.69
2022-11-20T13:27:49.023Z,100422.38
2022-11-20T13:32:08.095Z,100435.13
2022-11-20T13:36:29.272Z,100435.13
2022-11-20T13:40:54.872Z,100439.09
2022-11-20T13:45:12.601Z,100431.66
2022-11-20T13:49:44.802Z,100419.41
2022-11-20T13:53:59.673Z,100403.88
2022-11-20T13:58:41.508Z,100398.19
2022-11-20T14:03:17.651Z,100397.31
2022-11-20T14:07:37.633Z,100373.09
2022-11-20T14:11:49.405Z,100375.81
2022-11-20T14:16:01.088Z,100360.81
2022-11-20T14:20:16.319Z,100358.19
2022-11-20T14:24:28.172Z,100333.19
2022-11-20T14:28:41.120Z,100336.78
2022-11-20T14:32:56.598Z,100319.66
2022-11-20T14:37:16.789Z,100362.31
2022-11-20T14:41:28.734Z,100348.22
2022-11-20T14:45:40.466Z,100322.59
2022-11-20T14:49:54.652Z,100306.69
2022-11-20T14:54:17.284Z,100292.53
2022-11-20T14:58:32.772Z,100282.47
2022-11-20T15:02:50.044Z,100276.44
2022-11-20T15:07:01.827Z,100277.34
2022-11-20T15:11:24.607Z,100269.38
2022-11-20T15:15:50.392Z,100272.66
2022-11-20T15:20:03.086Z,100261.25
2022-11-20T15:24:15.102Z,100254.75
2022-11-20T15:28:56.222Z,100252.38
2022-11-20T15:33:09.511Z,100251.38
2022-11-20T15:37:22.249Z,100254.84
2022-11-20T15:41:37.107Z,100252.81
2022-11-20T15:46:01.458Z,100249.59
2022-11-20T15:50:18.273Z,100250.59
2022-11-20T15:54:29.899Z,100231.59
2022-11-20T15:58:42.336Z,100225.34
2022-11-20T16:02:53.936Z,100231.84
2022-11-20T16:07:06.079Z,100212.44
2022-11-20T16:11:18.739Z,100217.41
2022-11-20T16:15:49.085Z,100188.94
2022-11-20T16:20:00.675Z,100179.97
2022-11-20T16:24:14.029Z,100159.59
2022-11-20T16:28:25.827Z,100133.69
2022-11-20T16:32:39.614Z,100139.91
2022-11-20T16:36:51.409Z,100128.47
2022-11-20T16:41:03.648Z,100118.94
2022-11-20T16:45:19.982Z,100108.50
2022-11-20T16:49:34.942Z,100097.94
2022-11-20T16:53:46.541Z,100096.28
2022-11-20T16:57:58.033Z,100082.84
2022-11-20T17:02:10.526Z,100076.34
2022-11-20T17:06:25.368Z,100076.16
2022-11-20T17:10:36.898Z,100064.47
2022-11-20T17:14:48.480Z,100047.34
2022-11-20T17:19:03.403Z,100046.13
2022-11-20T17:23:15.207Z,100040.63
2022-11-20T17:27:26.956Z,100042.28
2022-11-20T17:31:39.422Z,100021.25
2022-11-20T17:35:50.962Z,100024.16
2022-11-20T17:40:02.479Z,100019.66
2022-11-20T17:44:14.179Z,100020.06
2022-11-20T17:48:26.138Z,100014.56
2022-11-20T17:52:37.573Z,100013.38
2022-11-20T17:57:07.816Z,100006.22
2022-11-20T18:01:19.789Z,100004.19
2022-11-20T18:05:31.359Z,99998.50
2022-11-20T18:09:42.789Z,99986.88
2022-11-20T18:14:15.896Z,99987.88
2022-11-20T18:18:27.350Z,99988.91
2022-11-20T18:22:38.871Z,99987.88
2022-11-20T18:26:50.489Z,99983.78
2022-11-20T18:31:06.699Z,99985.88
2022-11-20T18:35:18.175Z,99986.69
2022-11-20T18:39:29.831Z,99992.41
2022-11-20T18:43:59.930Z,99992.41
2022-11-20T18:48:11.484Z,99993.22
2022-11-20T18:52:33.851Z,99997.94
2022-11-20T18:56:45.479Z,100007.13
2022-11-20T19:00:57.047Z,100005.09
2022-11-20T19:05:09.741Z,100003.06
2022-11-20T19:09:22.900Z,99996.13
2022-11-20T19:13:35.800Z,100004.91
2022-11-20T19:17:47.393Z,100008.75
2022-11-20T19:21:58.923Z,100021.47
2022-11-20T19:26:10.620Z,100024.50
2022-11-20T19:30:22.143Z,100030.63
2022-11-20T19:34:33.653Z,100039.41
2022-11-20T19:38:52.336Z,100044.34
2022-11-20T19:43:05.182Z,100042.06
2022-11-20T19:47:16.892Z,100040.22
2022-11-20T19:51:31.092Z,100031.25
2022-11-20T19:55:45.525Z,100025.31
2022-11-20T19:59:57.105Z,100019.75
2022-11-20T20:04:09.000Z,100012.41
2022-11-20T20:08:20.523Z,100017.03
2022-11-20T20:12:32.136Z,100026.38
2022-11-20T20:16:48.301Z,100033.16
2022-11-20T20:21:05.294Z,100044.97
2022-11-20T20:25:16.854Z,100053.16
2022-11-20T20:29:28.563Z,100060.31
2022-11-20T20:33:41.312Z,100068.09
2022-11-20T20:37:52.900Z,100072.63
2022-11-20T20:42:04.541Z,100073.06
2022-11-20T20:46:16.168Z,100085.94
2022-11-20T20:50:27.737Z,100094.34
2022-11-20T20:54:41.905Z,100098.25
2022-11-20T20:58:53.644Z,100092.13
2022-11-20T21:03:10.451Z,100092.06
2022-11-20T21:07:22.212Z,100113.00
2022-11-20T21:11:34.874Z,100090.69
2022-11-20T21:15:48.988Z,100106.59
2022-11-20T21:20:00.455Z,100099.66
2022-11-20T21:24:11.945Z,100105.22
2022-11-20T21:28:23.413Z,100109.25
2022-11-20T21:32:34.905Z,100115.00
2022-11-20T21:36:46.828Z,100113.38
2022-11-20T21:40:58.790Z,100114.38
2022-11-20T21:45:10.452Z,100121.59
2022-11-20T21:49:22.407Z,100109.72
2022-11-20T21:53:34.658Z,100120.91
2022-11-20T21:57:46.108Z,100114.56
2022-11-20T22:01:57.640Z,100124.44
2022-11-20T22:06:10.200Z,100127.72
2022-11-20T22:10:21.675Z,100120.38
2022-11-20T22:14:33.145Z,100122.63
2022-11-20T22:18:47.284Z,100134.06
2022-11-20T22:22:58.782Z,100141.84
2022-11-20T22:27:10.430Z,100152.28
2022-11-20T22:31:24.247Z,100159.03
2022-11-20T22:35:35.673Z,100151.66
2022-11-20T22:39:47.104Z,100147.31
2022-11-20T22:44:04.082Z,100158.16
2022-11-20T22:48:15.587Z,100181.69
2022-11-20T22:52:27.100Z,100179.41
2022-11-20T22:56:39.128Z,100191.09
2022-11-20T23:00:51.120Z,100184.72
2022-11-20T23:05:02.641Z,100202.28
2022-11-20T23:09:14.298Z,100203.50
2022-11-20T23:13:26.072Z,100203.72
2022-11-20T23:17:37.556Z,100191.44
2022-11-20T23:21:49.132Z,100190.22
2022-11-20T23:26:09.625Z,100194.28
2022-11-20T23:30:21.483Z,100194.22
2022-11-20T23:34:32.938Z,100210.03
2022-11-20T23:38:44.471Z,100207.38
2022-11-20T23:43:14.296Z,100193.66
2022-11-20T23:47:25.817Z,100201.06
2022-11-20T23:51:37.238Z,100216.16
2022-11-20T23:55:54.209Z,100216.72
